Time;durP1;ratioP1;P1;durP2;ratioP2;P2;SDS_P1;SDS_P2;PMS_P1;PMS_P2;Temp;Humidity;BMP_temperature;BMP_pressure;BME280_temperature;BME280_humidity;BME280_pressure;Samples;Min_cycle;Max_cycle;Signal;HPM_P1;HPM_P2
2022/11/22 00:00:28;;;;;;;59.53;30.73;;;;;;;-3.80;92.49;98635.31;1737397;81;21081;-80
2022/11/22 00:02:57;;;;;;;58.20;29.55;;;;;;;-3.78;92.61;98632.73;1727488;81;21088;-80
2022/11/22 00:05:24;;;;;;;54.97;29.60;;;;;;;-3.78;92.47;98635.29;1734946;81;21079;-80
2022/11/22 00:07:50;;;;;;;58.13;29.77;;;;;;;-3.76;92.60;98628.48;1733611;81;21069;-81
2022/11/22 00:10:17;;;;;;;51.17;29.27;;;;;;;-3.77;92.45;98635.73;1739838;81;21541;-80
2022/11/22 00:12:44;;;;;;;58.40;31.85;;;;;;;-3.80;92.44;98635.75;1735195;81;21064;-81
2022/11/22 00:15:12;;;;;;;62.93;31.93;;;;;;;-3.86;92.39;98637.91;1735061;81;21012;-81
2022/11/22 00:17:39;;;;;;;64.85;32.38;;;;;;;-3.88;92.54;98648.11;1742401;81;21086;-80
2022/11/22 00:20:10;;;;;;;73.87;34.95;;;;;;;-3.83;92.80;98651.48;1742084;81;21122;-80
2022/11/22 00:22:37;;;;;;;62.88;32.48;;;;;;;-3.75;92.86;98660.77;1742044;81;21596;-80
2022/11/22 00:25:05;;;;;;;72.22;33.92;;;;;;;-3.71;92.92;98644.61;1743847;81;21581;-79
2022/11/22 00:27:32;;;;;;;59.80;32.88;;;;;;;-3.68;92.86;98636.92;1741392;81;21025;-80
2022/11/22 00:29:59;;;;;;;74.77;35.55;;;;;;;-3.68;92.78;98636.49;1715252;81;21059;-79
2022/11/22 00:32:26;;;;;;;59.58;32.67;;;;;;;-3.65;92.85;98647.11;1732272;81;21154;-80
2022/11/22 00:34:52;;;;;;;56.50;31.47;;;;;;;-3.63;92.85;98649.22;1738916;81;21022;-80
2022/11/22 00:37:19;;;;;;;62.70;31.85;;;;;;;-3.59;92.95;98657.26;1744047;81;21039;-79
2022/11/22 00:39:46;;;;;;;70.78;32.65;;;;;;;-3.58;92.81;98658.97;1721376;82;21088;-80
2022/11/22 00:42:13;;;;;;;67.70;33.25;;;;;;;-3.60;92.64;98656.86;1701186;82;21069;-80
2022/11/22 00:44:40;;;;;;;68.72;33.28;;;;;;;-3.60;92.77;98656.42;1707946;82;21526;-80
2022/11/22 00:47:06;;;;;;;74.90;35.53;;;;;;;-3.58;92.90;98660.25;1713831;82;21585;-80
2022/11/22 00:49:33;;;;;;;76.62;35.92;;;;;;;-3.56;92.88;98658.51;1714699;83;21410;-80
2022/11/22 00:52:00;;;;;;;69.93;33.80;;;;;;;-3.53;93.02;98652.10;1714531;82;21030;-80
2022/11/22 00:54:27;;;;;;;69.75;35.75;;;;;;;-3.46;93.08;98652.48;1717851;82;21009;-80
2022/11/22 00:56:53;;;;;;;64.42;31.73;;;;;;;-3.42;93.09;98654.17;1714942;82;21621;-80
2022/11/22 00:59:20;;;;;;;71.55;34.73;;;;;;;-3.45;92.79;98659.27;1716663;82;20964;-80
2022/11/22 01:01:47;;;;;;;60.33;31.42;;;;;;;-3.51;92.68;98665.70;1720304;82;20982;-80
2022/11/22 01:04:14;;;;;;;61.80;33.00;;;;;;;-3.56;92.63;98655.95;1710455;83;21034;-80
2022/11/22 01:06:43;;;;;;;60.12;31.90;;;;;;;-3.60;92.56;98654.30;1714864;82;21683;-80
2022/11/22 01:09:10;;;;;;;72.60;34.88;;;;;;;-3.62;92.63;98641.98;1714044;82;21144;-80
2022/11/22 01:11:36;;;;;;;59.53;31.97;;;;;;;-3.67;92.58;98643.71;1716392;82;21544;-80
2022/11/22 01:14:03;;;;;;;71.53;34.30;;;;;;;-3.67;92.68;98648.81;1719027;82;21613;-80
2022/11/22 01:16:30;;;;;;;60.80;33.17;;;;;;;-3.67;92.78;98661.57;1721269;82;21054;-79
2022/11/22 01:18:57;;;;;;;64.10;32.67;;;;;;;-3.62;93.02;98662.39;1702699;82;21522;-79
2022/11/22 01:21:23;;;;;;;67.77;33.70;;;;;;;-3.60;93.00;98668.34;1717755;82;21290;-80
2022/11/22 01:23:50;;;;;;;61.90;32.33;;;;;;;-3.56;93.05;98664.89;1706135;82;21134;-80
2022/11/22 01:26:17;;;;;;;67.62;32.40;;;;;;;-3.53;93.07;98666.14;1681918;84;21031;-79
2022/11/22 01:28:44;;;;;;;64.42;32.23;;;;;;;-3.54;92.95;98663.18;1665707;84;21011;-80
2022/11/22 01:31:10;;;;;;;66.55;34.27;;;;;;;-3.55;92.86;98658.95;1706146;82;20962;-80
2022/11/22 01:33:37;;;;;;;61.63;31.57;;;;;;;-3.58;92.78;98646.22;1701575;83;21602;-80
2022/11/22 01:36:04;;;;;;;65.65;33.13;;;;;;;-3.63;92.70;98645.40;1706727;82;21969;-80
2022/11/22 01:38:31;;;;;;;59.08;32.38;;;;;;;-3.67;92.74;98649.69;1724475;81;21265;-77
2022/11/22 01:40:58;;;;;;;67.35;33.63;;;;;;;-3.68;92.81;98652.23;1745428;81;20989;-77
2022/11/22 01:43:27;;;;;;;67.22;32.73;;;;;;;-3.75;92.82;98645.47;1742390;80;21139;-80
2022/11/22 01:46:36;;;;;;;62.73;31.48;;;;;;;-3.77;92.92;98649.76;1739800;81;21110;-80
2022/11/22 01:49:21;;;;;;;62.13;30.92;;;;;;;-3.74;93.13;98653.56;1764030;79;21003;-81
2022/11/22 01:51:50;;;;;;;64.12;33.23;;;;;;;-3.80;93.01;98652.33;1706440;82;21063;-80
2022/11/22 01:54:21;;;;;;;62.78;31.87;;;;;;;-3.86;93.06;98662.98;1743174;80;21025;-80
2022/11/22 01:56:53;;;;;;;58.92;33.00;;;;;;;-3.85;93.21;98668.49;1740211;81;21656;-81
2022/11/22 01:59:24;;;;;;;63.98;31.95;;;;;;;-3.79;93.29;98659.11;1735711;81;21085;-80
2022/11/22 02:01:51;;;;;;;61.25;31.85;;;;;;;-3.77;93.23;98652.31;1736374;82;21092;-80
2022/11/22 02:04:19;;;;;;;;;;;;;;;-3.78;93.14;98645.49;1744486;80;21621;-80
2022/11/22 02:07:02;;;;;;;61.23;31.75;;;;;;;-3.75;93.25;98640.37;1791234;79;21579;-79
2022/11/22 02:09:30;;;;;;;63.15;31.05;;;;;;;-3.72;93.25;98651.85;1793363;79;20926;-81
2022/11/22 02:12:01;;;;;;;63.20;31.40;;;;;;;-3.67;93.42;98652.64;1779363;80;21048;-80
2022/11/22 02:14:29;;;;;;;66.77;32.55;;;;;;;-3.66;93.26;98647.97;1735314;80;21059;-80
2022/11/22 02:16:55;;;;;;;;;;;;;;;-3.60;93.54;98642.82;1731236;82;20900;-80
2022/11/22 02:19:45;;;;;;;60.70;32.23;;;;;;;-3.51;93.67;98650.39;1732591;80;20129;-80
2022/11/22 02:22:39;;;;;;;57.03;30.10;;;;;;;-3.45;93.63;98643.95;1744135;80;21653;-81
2022/11/22 02:25:42;;;;;;;65.47;31.82;;;;;;;-3.41;93.58;98640.98;1774099;79;21244;-81
2022/11/22 02:28:12;;;;;;;62.45;33.33;;;;;;;-3.41;93.42;98654.58;1776318;79;21534;-79
2022/11/22 02:30:40;;;;;;;58.55;31.35;;;;;;;-3.39;93.35;98660.52;1776308;79;21092;-81
2022/11/22 02:33:08;;;;;;;59.45;32.20;;;;;;;-3.37;93.43;98658.78;1786809;80;21022;-81
2022/11/22 02:35:35;;;;;;;63.23;32.40;;;;;;;-3.37;93.31;98661.34;1768471;79;21016;-80
2022/11/22 02:38:16;;;;;;;62.53;33.85;;;;;;;-3.30;93.49;98661.31;1785118;79;21149;-80
2022/11/22 02:40:56;;;;;;;63.33;32.55;;;;;;;-3.26;93.48;98662.97;1786417;78;20949;-81
2022/11/22 02:43:27;;;;;;;71.92;35.78;;;;;;;-3.22;93.56;98664.61;1771628;79;21529;-81
2022/11/22 02:45:53;;;;;;;60.43;31.27;;;;;;;-3.20;93.43;98665.45;1775312;79;20977;-81
2022/11/22 02:48:20;;;;;;;64.53;33.80;;;;;;;-3.18;93.40;98659.91;1774196;80;21032;-81
2022/11/22 02:50:47;;;;;;;71.67;34.18;;;;;;;-3.15;93.44;98659.88;1733257;80;21818;-80
2022/11/22 02:53:14;;;;;;;68.93;35.20;;;;;;;-3.11;93.52;98653.88;1742487;80;20910;-80
2022/11/22 02:55:40;;;;;;;69.67;34.88;;;;;;;-3.10;93.46;98669.63;1711156;82;21032;-80
2022/11/22 02:58:07;;;;;;;62.65;33.90;;;;;;;-3.09;93.41;98671.31;1744178;80;21607;-81
2022/11/22 03:00:36;;;;;;;75.40;38.13;;;;;;;-3.06;93.45;98667.45;1741365;80;21036;-80
2022/11/22 03:03:03;;;;;;;70.87;34.83;;;;;;;-3.04;93.49;98667.02;1717695;82;21237;-80
2022/11/22 03:05:29;;;;;;;76.17;36.58;;;;;;;-3.02;93.40;98657.64;1786214;79;21139;-79
2022/11/22 03:07:56;;;;;;;71.70;35.28;;;;;;;-3.01;93.38;98656.77;1776785;78;21577;-79
2022/11/22 03:10:23;;;;;;;74.73;36.00;;;;;;;-3.00;93.33;98652.50;1774921;79;21004;-80
2022/11/22 03:12:49;;;;;;;80.23;37.87;;;;;;;-2.98;93.38;98648.23;1740651;80;21043;-79
2022/11/22 03:15:16;;;;;;;75.70;37.23;;;;;;;-2.98;93.41;98650.34;1728889;80;22303;-79
2022/11/22 03:17:43;;;;;;;80.47;36.35;;;;;;;-2.97;93.45;98649.51;1772330;79;21672;-79
2022/11/22 03:20:10;;;;;;;80.47;38.73;;;;;;;-2.96;93.40;98643.96;1778427;80;20969;-79
2022/11/22 03:22:36;;;;;;;81.60;39.10;;;;;;;-2.98;93.29;98638.86;1774094;79;21059;-79
2022/11/22 03:25:04;;;;;;;92.20;41.43;;;;;;;-2.97;93.35;98635.46;1780349;79;20997;-79
2022/11/22 03:27:30;;;;;;;;;;;;;;;-2.97;93.42;98631.63;1784719;79;21077;-78
2022/11/22 03:29:57;;;;;;;91.53;41.10;;;;;;;-2.97;93.39;98627.80;1771994;79;20104;-79
2022/11/22 03:32:23;;;;;;;87.05;41.33;;;;;;;-2.95;93.52;98629.87;1790064;79;20946;-79
2022/11/22 03:34:50;;;;;;;100.47;41.73;;;;;;;-2.94;93.50;98631.59;1767423;79;21047;-79
2022/11/22 03:37:17;;;;;;;92.67;41.33;;;;;;;-2.93;93.50;98626.05;1780680;78;21025;-79
2022/11/22 03:39:44;;;;;;;87.75;41.08;;;;;;;-2.94;93.47;98629.04;1788500;79;21492;-79
2022/11/22 03:42:10;;;;;;;82.13;40.20;;;;;;;-2.90;93.56;98632.84;1787711;79;21053;-79
2022/11/22 03:44:37;;;;;;;81.03;39.27;;;;;;;-2.87;93.56;98620.03;1777658;79;20982;-79
2022/11/22 03:47:04;;;;;;;81.35;38.05;;;;;;;-2.88;93.50;98627.29;1781551;79;21052;-78
2022/11/22 03:49:30;;;;;;;83.52;39.30;;;;;;;-2.89;93.42;98626.85;1785445;79;20971;-79
2022/11/22 03:51:57;;;;;;;74.35;37.75;;;;;;;-2.90;93.40;98637.95;1803530;79;21833;-79
2022/11/22 03:54:24;;;;;;;83.63;40.13;;;;;;;-2.95;93.37;98631.16;1783761;78;20967;-79
2022/11/22 03:56:51;;;;;;;79.90;39.55;;;;;;;-2.94;93.47;98637.98;1783527;79;20985;-79
2022/11/22 03:59:17;;;;;;;75.13;39.93;;;;;;;-2.90;93.65;98635.39;1777681;80;21049;-79
2022/11/22 04:01:44;;;;;;;73.57;39.00;;;;;;;-2.85;93.78;98640.87;1776280;80;20938;-79
2022/11/22 04:04:10;;;;;;;80.47;39.73;;;;;;;-2.83;93.67;98639.55;1781866;80;21052;-79
2022/11/22 04:06:38;;;;;;;86.03;40.70;;;;;;;-2.82;93.62;98641.27;1777982;80;21042;-79
2022/11/22 04:09:05;;;;;;;81.20;40.92;;;;;;;-2.80;93.66;98643.35;1782155;79;21712;-79
2022/11/22 04:11:32;;;;;;;79.85;41.25;;;;;;;-2.78;93.66;98649.30;1785316;79;20998;-79
2022/11/22 04:16:44;;;;;;;87.53;41.08;;;;;;;-2.73;93.74;98643.71;1781101;79;20982;-79
2022/11/22 04:19:10;;;;;;;80.25;42.38;;;;;;;-2.72;93.71;98646.67;1783267;79;21688;-79
2022/11/22 04:21:37;;;;;;;79.53;40.10;;;;;;;-2.66;93.84;98641.92;1788212;79;20942;-79
2022/11/22 04:26:55;;;;;;;91.63;43.05;;;;;;;-2.64;93.74;98629.55;1783755;79;21025;-79
2022/11/22 04:29:22;;;;;;;;;;;;;;;-2.63;93.76;98625.27;1775774;79;21103;-78
2022/11/22 04:34:36;;;;;;;77.67;40.00;;;;;;;-2.62;93.81;98626.55;1768405;80;21570;-78
2022/11/22 04:37:03;;;;;;;70.42;38.13;;;;;;;-2.62;93.87;98634.22;1786295;80;21622;-77
2022/11/22 04:39:30;;;;;;;;;;;;;;;-2.60;93.91;98628.66;1773791;79;21036;-78
2022/11/22 04:44:43;;;;;;;80.17;39.30;;;;;;;-2.57;93.93;98626.51;1775245;80;20958;-79
2022/11/22 04:47:11;;;;;;;;;;;;;;;-2.55;93.95;98619.64;1766663;80;20958;-78
2022/11/22 04:49:38;;;;;;;79.50;39.98;;;;;;;-2.53;93.92;98621.31;1776258;79;20119;-78
2022/11/22 04:54:52;;;;;;;76.82;41.58;;;;;;;-2.42;94.16;98634.41;1735232;81;21116;-79
2022/11/22 04:57:18;;;;;;;82.15;42.50;;;;;;;-2.38;94.21;98639.88;1726001;82;20946;-79
2022/11/22 04:59:45;;;;;;;87.17;43.90;;;;;;;-2.36;94.16;98646.67;1724884;81;21307;-79
2022/11/22 05:02:12;;;;;;;84.37;44.60;;;;;;;-2.32;94.20;98652.61;1723807;83;21333;-79
2022/11/22 05:04:39;;;;;;;79.80;42.38;;;;;;;-2.26;94.25;98655.09;1722570;81;21092;-78
2022/11/22 05:07:06;;;;;;;84.10;42.93;;;;;;;-2.22;94.21;98654.61;1649331;84;21278;-78
2022/11/22 05:09:32;;;;;;;80.07;41.98;;;;;;;-2.22;94.05;98650.33;1678579;84;21011;-78
2022/11/22 05:11:59;;;;;;;75.37;40.67;;;;;;;-2.20;93.99;98644.78;1672515;84;21017;-78
2022/11/22 05:14:26;;;;;;;73.70;40.63;;;;;;;-2.15;94.20;98650.69;1662034;84;21042;-78
2022/11/22 05:16:52;;;;;;;84.35;42.70;;;;;;;-2.14;93.98;98646.41;1658832;84;21009;-78
2022/11/22 05:19:19;;;;;;;81.37;41.87;;;;;;;-2.17;93.87;98652.41;1668011;85;21457;-78
2022/11/22 05:21:45;;;;;;;81.45;40.88;;;;;;;-2.15;93.94;98650.69;1673862;85;21899;-78
2022/11/22 05:24:12;;;;;;;70.00;38.63;;;;;;;-2.21;93.64;98646.94;1676594;84;20966;-78
2022/11/22 05:26:39;;;;;;;71.87;39.20;;;;;;;-2.21;93.76;98644.78;1672502;84;21112;-78
2022/11/22 05:29:09;;;;;;;83.42;42.60;;;;;;;-2.23;93.78;98647.38;1699002;82;21172;-78
2022/11/22 05:31:38;;;;;;;89.75;43.52;;;;;;;-2.19;93.93;98656.69;1714455;83;21082;-79
2022/11/22 05:34:05;;;;;;;84.67;42.80;;;;;;;-2.12;94.18;98653.20;1791445;79;20985;-79
2022/11/22 05:36:33;;;;;;;87.17;47.03;;;;;;;-2.07;94.18;98651.43;1783685;78;20930;-79
2022/11/22 05:39:01;;;;;;;89.13;47.15;;;;;;;-2.04;94.35;98644.98;1785335;78;21147;-79
2022/11/22 05:41:28;;;;;;;82.95;46.55;;;;;;;-1.94;94.48;98646.13;1730661;82;21000;-79
2022/11/22 05:43:56;;;;;;;82.78;45.43;;;;;;;-1.91;94.40;98653.76;1729060;82;24343;-78
2022/11/22 05:46:26;;;;;;;;;;;;;;;-1.91;94.28;98658.87;1727967;81;20986;-78
2022/11/22 05:48:55;;;;;;;91.95;49.08;;;;;;;-1.94;94.24;98657.64;1726260;83;20117;-78
2022/11/22 05:51:25;;;;;;;96.20;50.12;;;;;;;-1.98;94.24;98659.84;1716746;83;21009;-78
2022/11/22 05:53:52;;;;;;;79.85;46.18;;;;;;;-1.99;94.27;98660.69;1720269;82;21116;-78
2022/11/22 05:56:22;;;;;;;92.40;48.92;;;;;;;-2.01;94.26;98654.78;1776165;80;21117;-78
2022/11/22 05:58:50;;;;;;;93.15;51.42;;;;;;;-2.04;94.27;98656.94;1776320;80;21065;-78
2022/11/22 06:01:21;;;;;;;90.15;51.42;;;;;;;-2.04;94.36;98664.17;1764900;80;21615;-78
2022/11/22 06:03:48;;;;;;;95.77;53.17;;;;;;;-2.06;94.39;98658.22;1778525;80;20989;-77
2022/11/22 06:06:15;;;;;;;100.38;55.10;;;;;;;-2.06;94.47;98663.34;1773440;79;21564;-79
2022/11/22 06:08:45;;;;;;;88.80;52.90;;;;;;;-2.08;94.47;98659.95;1780892;80;21120;-78
2022/11/22 06:11:22;;;;;;;93.90;53.92;;;;;;;-2.08;94.53;98662.50;1777397;79;20965;-78
2022/11/22 06:13:52;;;;;;;98.50;53.95;;;;;;;-2.09;94.55;98660.83;1787531;80;21582;-80
2022/11/22 06:16:20;;;;;;;98.22;55.08;;;;;;;-2.08;94.60;98666.78;1767052;80;21049;-78
2022/11/22 06:18:47;;;;;;;99.95;55.00;;;;;;;-2.10;94.61;98669.38;1782059;79;20985;-78
2022/11/22 06:21:19;;;;;;;89.50;51.92;;;;;;;-2.10;94.66;98673.63;1784901;79;21120;-78
2022/11/22 06:23:46;;;;;;;93.50;51.30;;;;;;;-2.08;94.67;98682.97;1773174;79;21014;-78
2022/11/22 06:26:15;;;;;;;;;;;;;;;-2.05;94.78;98689.31;1799434;78;21016;-78
2022/11/22 06:28:43;;;;;;;97.47;49.70;;;;;;;-2.00;94.70;98699.94;1780589;78;20145;-79
2022/11/22 06:31:22;;;;;;;90.35;51.83;;;;;;;-1.98;94.72;98705.89;1776812;80;21033;-78
2022/11/22 06:33:49;;;;;;;110.60;54.25;;;;;;;-1.94;94.72;98706.25;1773284;79;22172;-80
2022/11/22 06:36:25;;;;;;;101.02;53.15;;;;;;;-1.89;94.78;98703.20;1801329;79;21494;-78
2022/11/22 06:38:53;;;;;;;113.37;60.95;;;;;;;-1.84;94.72;98711.67;1785946;79;21729;-79
2022/11/22 06:41:28;;;;;;;110.65;57.83;;;;;;;-1.84;94.68;98709.11;1782977;79;20970;-81
2022/11/22 06:43:56;;;;;;;121.75;62.80;;;;;;;-1.82;94.72;98715.03;1786880;80;22322;-78
2022/11/22 06:46:25;;;;;;;118.62;62.35;;;;;;;-1.80;94.69;98708.19;1751334;79;21112;-80
2022/11/22 06:48:52;;;;;;;127.40;65.28;;;;;;;-1.77;94.77;98699.63;1802906;78;20906;-79
2022/11/22 06:51:23;;;;;;;115.65;60.65;;;;;;;-1.75;94.80;98698.73;1800343;78;20966;-80
2022/11/22 06:53:51;;;;;;;137.92;65.42;;;;;;;-1.71;94.79;98701.69;1773385;78;21001;-78
2022/11/22 06:56:26;;;;;;;125.78;66.42;;;;;;;-1.70;94.81;98702.09;1798276;79;21542;-78
2022/11/22 06:58:54;;;;;;;128.75;64.32;;;;;;;-1.67;94.89;98705.87;1777988;80;21471;-81
2022/11/22 07:01:25;;;;;;;146.20;74.22;;;;;;;-1.65;94.92;98710.55;1784893;78;20914;-78
2022/11/22 07:03:56;;;;;;;167.98;84.05;;;;;;;-1.62;94.92;98710.50;1778765;80;20950;-80
2022/11/22 07:06:29;;;;;;;151.65;75.35;;;;;;;-1.59;94.92;98707.89;1759429;80;21067;-78
2022/11/22 07:08:59;;;;;;;128.53;67.55;;;;;;;-1.58;94.88;98704.89;1777051;78;20965;-77
2022/11/22 07:11:29;;;;;;;129.55;64.87;;;;;;;-1.58;94.95;98709.58;1785937;79;21137;-76
2022/11/22 07:14:40;;;;;;;125.27;63.00;;;;;;;-1.46;94.81;98710.27;1812267;78;22241;-75
2022/11/22 07:17:06;;;;;;;121.53;61.53;;;;;;;-1.48;94.69;98714.59;1798376;79;21017;-77
2022/11/22 07:19:34;;;;;;;134.57;63.20;;;;;;;-1.53;94.91;98712.52;1775351;79;21107;-76
2022/11/22 07:22:01;;;;;;;126.38;60.20;;;;;;;-1.53;94.98;98716.36;1794617;79;21013;-75
2022/11/22 07:24:29;;;;;;;128.07;64.97;;;;;;;-1.49;94.81;98712.87;1763305;79;21853;-75
2022/11/22 07:26:56;;;;;;;137.40;64.53;;;;;;;-1.51;94.98;98724.84;1768551;79;21028;-75
2022/11/22 07:29:22;;;;;;;143.85;64.97;;;;;;;-1.50;95.05;98729.95;1819822;77;20946;-75
2022/11/22 07:31:49;;;;;;;140.45;64.35;;;;;;;-1.46;95.13;98730.75;1783332;79;21191;-76
2022/11/22 07:34:16;;;;;;;141.93;61.80;;;;;;;-1.44;95.15;98734.14;1798186;78;21019;-75
2022/11/22 07:36:43;;;;;;;150.93;69.72;;;;;;;-1.41;95.22;98731.53;1769738;80;21467;-75
2022/11/22 07:39:11;;;;;;;143.60;64.67;;;;;;;-1.40;95.25;98740.89;1776097;80;21761;-75
2022/11/22 07:41:38;;;;;;;147.00;66.72;;;;;;;-1.36;95.32;98738.27;1797302;78;22266;-77
2022/11/22 07:44:04;;;;;;;151.72;69.92;;;;;;;-1.32;95.38;98733.95;1788492;79;21052;-77
2022/11/22 07:46:32;;;;;;;148.10;69.70;;;;;;;-1.28;95.36;98738.17;1790464;79;21009;-75
2022/11/22 07:49:00;;;;;;;140.60;65.62;;;;;;;-1.24;95.39;98739.80;1795314;79;21486;-78
2022/11/22 07:51:27;;;;;;;140.60;67.03;;;;;;;-1.14;95.50;98750.77;1787525;79;21440;-80
2022/11/22 07:53:56;;;;;;;147.02;68.80;;;;;;;-1.08;95.44;98754.95;1771229;79;21053;-80
2022/11/22 07:56:23;;;;;;;144.70;66.30;;;;;;;-1.06;95.28;98748.09;1784885;80;21082;-80
2022/11/22 07:58:50;;;;;;;137.50;62.33;;;;;;;-1.04;95.24;98743.77;1794684;78;20981;-79
2022/11/22 08:01:18;;;;;;;130.37;63.92;;;;;;;-1.07;95.18;98736.97;1791754;79;20993;-79
2022/11/22 08:03:45;;;;;;;137.25;64.90;;;;;;;-1.09;95.17;98727.61;1780048;79;20961;-83
2022/11/22 08:06:15;;;;;;;149.40;69.15;;;;;;;-1.07;95.31;98720.77;1805467;77;20994;-76
2022/11/22 08:08:43;;;;;;;150.60;68.25;;;;;;;-1.06;95.32;98727.59;1780650;80;21483;-80
2022/11/22 08:11:10;;;;;;;139.18;64.70;;;;;;;-1.03;95.39;98730.11;1774160;80;21578;-78
2022/11/22 08:13:37;;;;;;;135.22;66.12;;;;;;;-1.01;95.40;98746.27;1798277;77;20958;-77
2022/11/22 08:16:09;;;;;;;135.43;66.43;;;;;;;-0.98;95.54;98749.66;1786779;79;20942;-78
2022/11/22 08:18:37;;;;;;;131.18;62.85;;;;;;;-0.90;95.61;98748.23;1729623;80;21026;-82
2022/11/22 08:21:07;;;;;;;135.63;66.35;;;;;;;-0.82;95.53;98764.33;1756576;79;21082;-78
2022/11/22 08:23:35;;;;;;;134.22;66.70;;;;;;;-0.79;95.52;98762.98;1758090;80;21110;-77
2022/11/22 08:26:02;;;;;;;135.00;66.42;;;;;;;-0.73;95.48;98757.78;1774268;79;21206;-78
2022/11/22 08:28:28;;;;;;;121.40;60.30;;;;;;;-0.69;95.44;98753.44;1776580;79;21010;-80
2022/11/22 08:31:09;;;;;;;123.47;62.60;;;;;;;-0.70;95.26;98749.17;1780390;79;21051;-77
2022/11/22 08:33:36;;;;;;;123.30;62.35;;;;;;;-0.74;95.24;98747.09;1773053;79;21230;-83
2022/11/22 08:36:04;;;;;;;118.67;61.90;;;;;;;-0.75;95.41;98742.86;1776852;80;20972;-82
2022/11/22 08:38:31;;;;;;;134.35;61.92;;;;;;;-0.75;95.41;98742.86;1787261;79;20931;-81
2022/11/22 08:40:58;;;;;;;120.30;60.15;;;;;;;-0.77;95.39;98744.59;1781384;79;21049;-80
2022/11/22 08:43:26;;;;;;;125.70;58.60;;;;;;;-0.75;95.54;98741.58;1789145;78;20962;-78
2022/11/22 08:45:57;;;;;;;108.25;56.00;;;;;;;-0.72;95.59;98753.05;1775324;79;21212;-79
2022/11/22 08:48:28;;;;;;;113.57;57.58;;;;;;;-0.68;95.58;98738.02;1782880;79;21029;-79
2022/11/22 08:51:05;;;;;;;116.40;59.88;;;;;;;-0.65;95.62;98737.12;1781531;79;21615;-84
2022/11/22 08:53:37;;;;;;;106.83;55.52;;;;;;;-0.60;95.65;98731.92;1791023;78;21016;-85
2022/11/22 08:56:05;;;;;;;95.07;51.60;;;;;;;-0.53;95.57;98720.69;1786410;79;20944;-82
2022/11/22 08:58:33;;;;;;;116.60;59.80;;;;;;;-0.48;95.59;98720.14;1785903;78;21144;-82
2022/11/22 09:01:17;;;;;;;106.12;55.00;;;;;;;-0.43;95.55;98718.34;1782426;78;21083;-87
2022/11/22 09:03:45;;;;;;;110.22;57.05;;;;;;;-0.35;95.60;98722.89;1754333;79;21063;-85
2022/11/22 09:06:15;;;;;;;102.32;52.67;;;;;;;-0.31;95.47;98723.27;1776346;79;20994;-89
2022/11/22 09:08:42;;;;;;;107.10;54.05;;;;;;;-0.21;95.54;98726.92;1780654;79;21023;-89
2022/11/22 09:11:12;;;;;;;100.33;48.73;;;;;;;-0.14;95.50;98733.19;1785608;79;21081;-85
2022/11/22 09:14:01;;;;;;;97.90;49.88;;;;;;;-0.12;95.07;98740.84;1790752;79;21254;-87
2022/11/22 09:16:29;;;;;;;101.18;51.77;;;;;;;-0.11;95.18;98741.23;1750485;81;21116;-87
2022/11/22 09:18:56;;;;;;;106.67;54.13;;;;;;;-0.06;95.21;98739.43;1749999;81;22410;-87
2022/11/22 09:21:26;;;;;;;99.67;50.05;;;;;;;-0.03;95.14;98750.91;1733189;81;21044;-85
2022/11/22 09:23:53;;;;;;;102.32;47.62;;;;;;;0.02;95.14;98756.81;1735024;81;21123;-83
2022/11/22 09:26:38;;;;;;;92.60;45.17;;;;;;;0.02;95.00;98752.95;1714975;81;26686;-83
2022/11/22 09:29:05;;;;;;;84.97;43.95;;;;;;;0.01;94.96;98753.84;1733594;81;21079;-82
2022/11/22 09:31:33;;;;;;;84.83;44.00;;;;;;;0.00;94.93;98754.73;1729986;81;21012;-81
2022/11/22 09:33:59;;;;;;;89.85;47.33;;;;;;;-0.01;94.87;98750.45;1708099;81;54951;-86
2022/11/22 09:36:26;;;;;;;81.23;43.73;;;;;;;-0.02;94.94;98766.74;1673321;84;22462;-82
2022/11/22 09:38:56;;;;;;;90.65;52.62;;;;;;;-0.03;94.90;98775.30;1669295;84;22306;-79
2022/11/22 09:41:55;;;;;;;80.07;45.10;;;;;;;0.00;95.07;98775.27;1678510;83;21081;-79
2022/11/22 09:44:55;;;;;;;88.95;43.90;;;;;;;0.05;94.93;98773.42;1644468;84;21098;-78
2022/11/22 09:47:33;;;;;;;80.60;40.40;;;;;;;-0.04;94.72;98763.35;1668657;83;21554;-81
2022/11/22 09:50:23;;;;;;;83.07;41.40;;;;;;;-0.11;94.56;98748.94;1678120;83;21126;-78
2022/11/22 09:53:24;;;;;;;65.20;35.55;;;;;;;-0.15;94.66;98743.47;1681129;83;21023;-77
2022/11/22 09:56:01;;;;;;;67.95;35.30;;;;;;;-0.08;94.87;98734.34;1675310;83;21230;-75
2022/11/22 09:58:46;;;;;;;64.12;32.78;;;;;;;-0.08;94.83;98738.20;1672840;83;21068;-82
2022/11/22 10:01:37;;;;;;;69.95;38.08;;;;;;;-0.01;94.88;98745.32;1674958;84;20993;-79
2022/11/22 10:04:28;;;;;;;70.75;36.98;;;;;;;0.00;94.63;98747.03;1667662;83;21074;-76
2022/11/22 10:07:02;;;;;;;69.82;35.33;;;;;;;0.13;94.47;98738.18;1662561;83;21903;-80
2022/11/22 10:09:41;;;;;;;73.97;32.25;;;;;;;0.20;94.22;98739.76;1671470;83;20988;-78
2022/11/22 10:12:37;;;;;;;58.05;31.37;;;;;;;0.21;94.00;98729.88;1676823;83;20984;-77
2022/11/22 10:15:43;;;;;;;70.17;36.10;;;;;;;0.24;93.92;98723.00;1694395;83;21028;-83
2022/11/22 10:18:27;;;;;;;74.05;34.10;;;;;;;0.16;94.28;98729.13;1689085;82;21112;-77
2022/11/22 10:20:55;;;;;;;65.08;31.45;;;;;;;0.14;94.19;98729.63;1679999;83;20931;-74
2022/11/22 10:23:24;;;;;;;67.40;31.37;;;;;;;0.05;94.10;98729.80;1682048;83;21663;-83
2022/11/22 10:26:07;;;;;;;70.62;33.33;;;;;;;-0.01;94.10;98728.64;1679087;83;21105;-77
2022/11/22 10:28:39;;;;;;;80.00;36.30;;;;;;;-0.02;93.92;98729.53;1677573;83;21593;-75
2022/11/22 10:31:19;;;;;;;67.12;34.90;;;;;;;0.08;94.52;98728.89;1670144;83;21115;-76
2022/11/22 10:34:14;;;;;;;91.35;36.48;;;;;;;0.10;94.22;98727.98;1656639;84;21064;-74
2022/11/22 10:37:20;;;;;;;69.85;34.63;;;;;;;0.24;94.67;98726.85;1675102;84;20945;-72
2022/11/22 10:40:35;;;;;;;78.07;33.88;;;;;;;0.35;94.47;98724.90;1677291;84;21016;-72
2022/11/22 10:43:08;;;;;;;90.70;34.40;;;;;;;0.36;94.00;98724.84;1673651;83;21021;-74
2022/11/22 10:46:21;;;;;;;75.28;33.75;;;;;;;0.40;93.81;98731.62;1677373;83;21094;-73
2022/11/22 10:49:19;;;;;;;71.92;33.23;;;;;;;0.31;93.73;98724.12;1675026;83;20999;-73
2022/11/22 10:52:11;;;;;;;74.95;33.53;;;;;;;0.20;93.55;98723.07;1675433;83;21782;-79
2022/11/22 10:54:53;;;;;;;61.20;30.43;;;;;;;0.17;93.97;98732.12;1678941;83;21049;-76
2022/11/22 10:57:57;;;;;;;62.95;31.65;;;;;;;0.14;93.71;98729.63;1676055;83;21112;-77
2022/11/22 11:00:26;;;;;;;55.80;25.05;;;;;;;0.13;94.06;98729.20;1674150;83;21206;-86
2022/11/22 11:03:28;;;;;;;53.38;25.92;;;;;;;0.11;93.51;98727.13;1677384;83;21555;-86
2022/11/22 11:06:01;;;;;;;54.50;22.02;;;;;;;0.01;93.21;98741.02;1682893;83;21073;-81
2022/11/22 11:08:39;;;;;;;50.00;25.30;;;;;;;-0.21;92.54;98739.75;1680787;83;21657;-88
2022/11/22 11:11:06;;;;;;;55.43;26.42;;;;;;;-0.35;92.72;98734.44;1672311;83;21138;-79
2022/11/22 11:13:41;;;;;;;62.95;32.60;;;;;;;-0.42;92.93;98727.75;1679613;83;21838;-82
2022/11/22 11:16:12;;;;;;;60.43;31.77;;;;;;;-0.43;93.23;98735.02;1685818;83;20948;-81
2022/11/22 11:19:08;;;;;;;61.18;30.23;;;;;;;-0.41;93.46;98715.32;1687013;82;21075;-80
2022/11/22 11:21:35;;;;;;;68.07;34.95;;;;;;;-0.40;93.29;98719.56;1670110;83;21094;-85
2022/11/22 11:24:04;;;;;;;68.57;37.83;;;;;;;-0.39;93.48;98720.41;1655434;84;21115;-82
2022/11/22 11:26:34;;;;;;;69.90;35.30;;;;;;;-0.35;93.61;98724.17;1660795;85;21176;-77
2022/11/22 11:29:33;;;;;;;83.25;42.48;;;;;;;-0.32;93.29;98715.14;1661059;84;21526;-77
2022/11/22 11:32:15;;;;;;;85.28;40.03;;;;;;;-0.35;93.17;98728.03;1647166;85;21115;-78
2022/11/22 11:35:04;;;;;;;74.70;37.65;;;;;;;-0.40;93.07;98718.28;1654595;85;21065;-79
2022/11/22 11:37:37;;;;;;;57.15;28.92;;;;;;;-0.45;92.86;98721.37;1620552;85;21799;-79
2022/11/22 11:40:27;;;;;;;64.55;33.48;;;;;;;-0.67;92.24;98708.13;1629501;86;21183;-79
2022/11/22 11:43:19;;;;;;;65.30;30.37;;;;;;;-0.79;92.62;98719.41;1637281;86;21054;-78
2022/11/22 11:45:46;;;;;;;57.08;26.87;;;;;;;-0.85;92.66;98722.09;1627179;86;21083;-77
2022/11/22 11:48:39;;;;;;;64.25;34.00;;;;;;;-0.92;92.60;98721.36;1616997;87;21624;-79
2022/11/22 11:51:40;;;;;;;60.55;28.50;;;;;;;-0.96;92.74;98721.42;1647246;85;21108;-76
2022/11/22 11:54:16;;;;;;;70.78;32.30;;;;;;;-0.99;92.67;98720.20;1620092;86;21879;-75